createdAt,value
2022-09-29T00:00:11.361Z,995.25
2022-09-29T00:01:11.354Z,995.27
2022-09-29T00:02:11.451Z,995.30
2022-09-29T00:03:11.469Z,995.27
2022-09-29T00:04:11.345Z,995.28
2022-09-29T00:05:11.342Z,995.29
2022-09-29T00:06:11.336Z,995.27
2022-09-29T00:07:11.332Z,995.26
2022-09-29T00:08:11.330Z,995.31
2022-09-29T00:09:11.402Z,995.26
2022-09-29T00:10:11.325Z,995.27
2022-09-29T00:11:11.317Z,995.29
2022-09-29T00:12:11.314Z,995.28
2022-09-29T00:13:11.309Z,995.31
2022-09-29T00:14:11.332Z,995.29
2022-09-29T00:15:11.302Z,995.30
2022-09-29T00:16:11.375Z,995.34
2022-09-29T00:17:11.297Z,995.30
2022-09-29T00:18:14.942Z,995.26
2022-09-29T00:19:11.306Z,995.25
2022-09-29T00:20:11.289Z,995.25
2022-09-29T00:21:11.281Z,995.21
2022-09-29T00:22:11.281Z,995.23
2022-09-29T00:23:11.273Z,995.23
2022-09-29T00:24:11.366Z,995.24
2022-09-29T00:25:11.266Z,995.20
2022-09-29T00:26:11.266Z,995.20
2022-09-29T00:27:11.257Z,995.23
2022-09-29T00:28:11.257Z,995.17
2022-09-29T00:29:11.254Z,995.21
2022-09-29T00:30:11.249Z,995.19
2022-09-29T00:31:11.284Z,995.18
2022-09-29T00:32:11.240Z,995.18
2022-09-29T00:33:11.237Z,995.20
2022-09-29T00:34:11.310Z,995.18
2022-09-29T00:35:11.245Z,995.22
2022-09-29T00:36:11.225Z,995.21
2022-09-29T00:37:11.224Z,995.20
2022-09-29T00:38:11.272Z,995.20
2022-09-29T00:39:11.213Z,995.19
2022-09-29T00:40:11.213Z,995.20
2022-09-29T00:41:11.207Z,995.16
2022-09-29T00:42:11.207Z,995.14
2022-09-29T00:43:11.203Z,995.13
2022-09-29T00:44:11.254Z,995.16
2022-09-29T00:45:11.191Z,995.14
2022-09-29T00:46:11.253Z,995.15
2022-09-29T00:47:11.182Z,995.16
2022-09-29T00:48:11.184Z,995.17
2022-09-29T00:49:11.176Z,995.14
2022-09-29T00:50:11.175Z,995.18
2022-09-29T00:51:11.185Z,995.18
2022-09-29T00:52:11.168Z,995.17
2022-09-29T00:53:11.164Z,995.17
2022-09-29T00:54:11.283Z,995.17
2022-09-29T00:55:11.156Z,995.16
2022-09-29T00:56:11.154Z,995.19
2022-09-29T00:57:11.153Z,995.18
2022-09-29T00:58:11.144Z,995.19
2022-09-29T00:59:11.136Z,995.17
2022-09-29T01:00:11.141Z,995.16
2022-09-29T01:01:11.191Z,995.17
2022-09-29T01:02:11.187Z,995.17
2022-09-29T01:03:11.122Z,995.15
2022-09-29T01:04:11.160Z,995.17
2022-09-29T01:05:11.114Z,995.18
2022-09-29T01:06:11.113Z,995.22
2022-09-29T01:07:11.136Z,995.18
2022-09-29T01:08:11.104Z,995.19
2022-09-29T01:09:11.098Z,995.17
2022-09-29T01:10:11.097Z,995.16
2022-09-29T01:11:11.134Z,995.17
2022-09-29T01:12:11.089Z,995.18
2022-09-29T01:13:11.083Z,995.15
2022-09-29T01:14:11.088Z,995.18
2022-09-29T01:15:11.081Z,995.21
2022-09-29T01:16:11.145Z,995.15
2022-09-29T01:17:11.085Z,995.14
2022-09-29T01:18:11.071Z,995.14
2022-09-29T01:19:11.098Z,995.15
2022-09-29T01:20:11.059Z,995.17
2022-09-29T01:21:11.057Z,995.20
2022-09-29T01:22:11.052Z,995.22
2022-09-29T01:23:11.064Z,995.22
2022-09-29T01:24:11.040Z,995.22
2022-09-29T01:25:11.039Z,995.19
2022-09-29T01:26:11.034Z,995.21
2022-09-29T01:27:11.028Z,995.21
2022-09-29T01:28:11.028Z,995.19
2022-09-29T01:29:11.024Z,995.22
2022-09-29T01:30:11.020Z,995.21
2022-09-29T01:31:11.065Z,995.21
2022-09-29T01:32:11.008Z,995.20
2022-09-29T01:33:11.004Z,995.22
2022-09-29T01:34:11.006Z,995.22
2022-09-29T01:35:10.998Z,995.24
2022-09-29T01:36:10.991Z,995.23
2022-09-29T01:37:10.992Z,995.23
2022-09-29T01:38:10.983Z,995.24
2022-09-29T01:39:10.998Z,995.26
2022-09-29T01:40:10.978Z,995.25
2022-09-29T01:41:10.975Z,995.25
2022-09-29T01:42:10.968Z,995.28
2022-09-29T01:43:10.966Z,995.30
2022-09-29T01:44:10.967Z,995.25
2022-09-29T01:45:10.960Z,995.28
2022-09-29T01:46:10.994Z,995.30
2022-09-29T01:47:10.951Z,995.27
2022-09-29T01:48:10.942Z,995.27
2022-09-29T01:49:10.939Z,995.31
2022-09-29T01:50:10.939Z,995.30
2022-09-29T01:51:10.930Z,995.33
2022-09-29T01:52:10.925Z,995.32
2022-09-29T01:53:10.953Z,995.31
2022-09-29T01:54:10.919Z,995.30
2022-09-29T01:55:10.936Z,995.28
2022-09-29T01:56:10.910Z,995.29
2022-09-29T01:57:10.908Z,995.32
2022-09-29T01:58:10.905Z,995.30
2022-09-29T01:59:10.898Z,995.30
2022-09-29T02:00:10.894Z,995.31
2022-09-29T02:01:10.948Z,995.31
2022-09-29T02:02:10.926Z,995.34
2022-09-29T02:03:10.879Z,995.31
2022-09-29T02:04:10.879Z,995.31
2022-09-29T02:05:10.880Z,995.31
2022-09-29T02:06:10.868Z,995.32
2022-09-29T02:07:10.862Z,995.30
2022-09-29T02:08:10.859Z,995.28
2022-09-29T02:09:10.855Z,995.29
2022-09-29T02:10:10.854Z,995.31
2022-09-29T02:11:10.866Z,995.29
2022-09-29T02:12:11.194Z,995.32
2022-09-29T02:13:10.840Z,995.30
2022-09-29T02:14:10.849Z,995.32
2022-09-29T02:15:10.847Z,995.32
2022-09-29T02:16:10.867Z,995.35
2022-09-29T02:17:10.825Z,995.34
2022-09-29T02:18:10.822Z,995.39
2022-09-29T02:19:10.816Z,995.42
2022-09-29T02:20:10.808Z,995.36
2022-09-29T02:21:10.805Z,995.39
2022-09-29T02:22:10.801Z,995.39
2022-09-29T02:23:10.797Z,995.40
2022-09-29T02:24:10.793Z,995.41
2022-09-29T02:25:10.792Z,995.43
2022-09-29T02:26:10.786Z,995.44
2022-09-29T02:27:10.801Z,995.45
2022-09-29T02:28:10.775Z,995.46
2022-09-29T02:29:10.775Z,995.42
2022-09-29T02:30:10.769Z,995.46
2022-09-29T02:31:10.825Z,995.44
2022-09-29T02:32:10.763Z,995.47
2022-09-29T02:33:10.774Z,995.46
2022-09-29T02:34:10.754Z,995.47
2022-09-29T02:35:10.747Z,995.48
2022-09-29T02:36:10.746Z,995.50
2022-09-29T02:37:10.739Z,995.47
2022-09-29T02:38:10.735Z,995.45
2022-09-29T02:39:10.731Z,995.46
2022-09-29T02:40:10.727Z,995.42
2022-09-29T02:41:10.721Z,995.41
2022-09-29T02:42:10.719Z,995.42
2022-09-29T02:43:10.739Z,995.44
2022-09-29T02:44:10.707Z,995.43
2022-09-29T02:45:10.713Z,995.41
2022-09-29T02:46:10.721Z,995.39
2022-09-29T02:47:10.696Z,995.39
2022-09-29T02:48:10.690Z,995.39
2022-09-29T02:49:10.690Z,995.41
2022-09-29T02:50:10.681Z,995.40
2022-09-29T02:51:10.684Z,995.42
2022-09-29T02:52:10.672Z,995.37
2022-09-29T02:53:10.671Z,995.42
2022-09-29T02:54:10.666Z,995.41
2022-09-29T02:55:10.673Z,995.40
2022-09-29T02:56:10.658Z,995.39
2022-09-29T02:57:10.653Z,995.40
2022-09-29T02:58:10.651Z,995.41
2022-09-29T02:59:10.664Z,995.38
2022-09-29T03:00:10.649Z,995.39
2022-09-29T03:01:10.682Z,995.38
2022-09-29T03:02:10.629Z,995.38
2022-09-29T03:03:10.672Z,995.38
2022-09-29T03:04:10.701Z,995.39
2022-09-29T03:05:10.615Z,995.35
2022-09-29T03:06:10.612Z,995.39
2022-09-29T03:07:10.608Z,995.40
2022-09-29T03:08:10.603Z,995.39
2022-09-29T03:09:10.602Z,995.42
2022-09-29T03:10:10.599Z,995.39
2022-09-29T03:11:10.591Z,995.37
2022-09-29T03:12:10.584Z,995.38
2022-09-29T03:13:10.583Z,995.37
2022-09-29T03:14:10.582Z,995.36
2022-09-29T03:15:10.594Z,995.38
2022-09-29T03:16:10.622Z,995.35
2022-09-29T03:17:10.566Z,995.36
2022-09-29T03:18:10.561Z,995.36
2022-09-29T03:19:10.556Z,995.35
2022-09-29T03:20:10.554Z,995.37
2022-09-29T03:21:10.546Z,995.38
2022-09-29T03:22:10.544Z,995.35
2022-09-29T03:23:10.540Z,995.37
2022-09-29T03:24:10.537Z,995.37
2022-09-29T03:25:10.534Z,995.37
2022-09-29T03:26:10.528Z,995.37
2022-09-29T03:27:10.521Z,995.39
2022-09-29T03:28:10.516Z,995.37
2022-09-29T03:29:10.517Z,995.37
2022-09-29T03:30:10.506Z,995.38
2022-09-29T03:31:10.568Z,995.38
2022-09-29T03:32:10.499Z,995.36
2022-09-29T03:33:10.496Z,995.34
2022-09-29T03:34:10.489Z,995.34
2022-09-29T03:35:10.483Z,995.33
2022-09-29T03:36:10.481Z,995.31
2022-09-29T03:37:10.479Z,995.33
2022-09-29T03:38:10.483Z,995.33
2022-09-29T03:39:10.475Z,995.37
2022-09-29T03:40:10.464Z,995.36
2022-09-29T03:41:10.461Z,995.39
2022-09-29T03:42:10.456Z,995.37
2022-09-29T03:43:10.456Z,995.35
2022-09-29T03:44:10.444Z,995.38
2022-09-29T03:45:10.442Z,995.38
2022-09-29T03:46:10.532Z,995.40
2022-09-29T03:47:10.579Z,995.41
2022-09-29T03:48:10.429Z,995.42
2022-09-29T03:49:10.427Z,995.41
2022-09-29T03:50:10.423Z,995.42
2022-09-29T03:51:10.418Z,995.40
2022-09-29T03:52:10.413Z,995.38
2022-09-29T03:53:10.410Z,995.38
2022-09-29T03:54:10.402Z,995.39
2022-09-29T03:55:10.396Z,995.39
2022-09-29T03:56:10.399Z,995.40
2022-09-29T03:57:10.392Z,995.43
2022-09-29T03:58:10.390Z,995.43
2022-09-29T03:59:10.405Z,995.50
2022-09-29T04:00:10.382Z,995.47
2022-09-29T04:01:10.411Z,995.48
2022-09-29T04:02:10.380Z,995.49
2022-09-29T04:03:10.383Z,995.53
2022-09-29T04:04:10.358Z,995.53
2022-09-29T04:05:10.354Z,995.55
2022-09-29T04:06:10.346Z,995.58
2022-09-29T04:07:10.341Z,995.63
2022-09-29T04:08:10.337Z,995.59
2022-09-29T04:09:10.335Z,995.59
2022-09-29T04:10:10.328Z,995.53
2022-09-29T04:11:10.326Z,995.59
2022-09-29T04:12:10.319Z,995.59
2022-09-29T04:13:10.317Z,995.60
2022-09-29T04:14:10.314Z,995.59
2022-09-29T04:15:10.314Z,995.59
2022-09-29T04:16:10.361Z,995.59
2022-09-29T04:17:10.307Z,995.61
2022-09-29T04:18:10.294Z,995.60
2022-09-29T04:19:10.308Z,995.63
2022-09-29T04:20:10.285Z,995.65
2022-09-29T04:21:10.285Z,995.64
2022-09-29T04:22:10.277Z,995.64
2022-09-29T04:23:10.273Z,995.65
2022-09-29T04:24:10.267Z,995.67
2022-09-29T04:25:10.265Z,995.67
2022-09-29T04:26:10.259Z,995.65
2022-09-29T04:27:10.257Z,995.68
2022-09-29T04:28:10.259Z,995.68
2022-09-29T04:29:10.249Z,995.65
2022-09-29T04:30:10.243Z,995.68
2022-09-29T04:31:10.287Z,995.69
2022-09-29T04:32:10.233Z,995.69
2022-09-29T04:33:10.231Z,995.71
2022-09-29T04:34:10.225Z,995.71
2022-09-29T04:35:10.238Z,995.76
2022-09-29T04:36:10.213Z,995.72
2022-09-29T04:37:10.208Z,995.75
2022-09-29T04:38:10.204Z,995.73
2022-09-29T04:39:10.198Z,995.72
2022-09-29T04:40:10.262Z,995.74
2022-09-29T04:41:10.200Z,995.73
2022-09-29T04:42:10.184Z,995.78
2022-09-29T04:43:10.186Z,995.74
2022-09-29T04:44:10.174Z,995.76
2022-09-29T04:45:10.173Z,995.77
2022-09-29T04:46:10.234Z,995.76
2022-09-29T04:47:10.162Z,995.77
2022-09-29T04:48:10.158Z,995.77
2022-09-29T04:49:10.153Z,995.79
2022-09-29T04:50:10.149Z,995.81
2022-09-29T04:51:10.162Z,995.79
2022-09-29T04:52:10.153Z,995.80
2022-09-29T04:53:10.137Z,995.81
2022-09-29T04:54:10.127Z,995.83
2022-09-29T04:55:10.129Z,995.82
2022-09-29T04:56:10.119Z,995.82
2022-09-29T04:57:10.114Z,995.85
2022-09-29T04:58:10.118Z,995.85
2022-09-29T04:59:10.108Z,995.80
2022-09-29T05:00:10.106Z,995.78
2022-09-29T05:01:10.250Z,995.79
2022-09-29T05:02:10.188Z,995.79
2022-09-29T05:03:10.095Z,995.79
2022-09-29T05:04:10.082Z,995.79
2022-09-29T05:05:10.080Z,995.84
2022-09-29T05:06:10.088Z,995.86
2022-09-29T05:07:10.093Z,995.83
2022-09-29T05:08:10.066Z,995.87
2022-09-29T05:09:10.060Z,995.84
2022-09-29T05:10:10.057Z,995.86
2022-09-29T05:11:10.053Z,995.87
2022-09-29T05:12:10.048Z,995.85
2022-09-29T05:13:10.044Z,995.86
2022-09-29T05:14:10.037Z,995.86
2022-09-29T05:15:10.053Z,995.91
2022-09-29T05:16:10.105Z,995.91
2022-09-29T05:17:10.023Z,995.91
2022-09-29T05:18:10.020Z,995.91
2022-09-29T05:19:10.017Z,995.91
2022-09-29T05:20:10.011Z,995.95
2022-09-29T05:21:27.097Z,995.93
2022-09-29T05:22:09.999Z,995.94
2022-09-29T05:23:10.055Z,995.94
2022-09-29T05:24:09.988Z,995.97
2022-09-29T05:25:09.990Z,996.03
2022-09-29T05:26:09.984Z,995.98
2022-09-29T05:27:09.978Z,996.00
2022-09-29T05:28:09.969Z,996.04
2022-09-29T05:29:09.971Z,996.04
2022-09-29T05:30:09.962Z,996.03
2022-09-29T05:31:10.006Z,996.06
2022-09-29T05:32:09.955Z,996.08
2022-09-29T05:33:09.948Z,996.12
2022-09-29T05:34:09.944Z,996.09
2022-09-29T05:35:09.941Z,996.14
2022-09-29T05:36:09.934Z,996.15
2022-09-29T05:37:10.049Z,996.15
2022-09-29T05:38:09.931Z,996.22
2022-09-29T05:39:09.941Z,996.18
2022-09-29T05:40:09.922Z,996.22
2022-09-29T05:41:09.916Z,996.22
2022-09-29T05:42:09.910Z,996.24
2022-09-29T05:43:09.901Z,996.23
2022-09-29T05:44:09.898Z,996.27
2022-09-29T05:45:09.891Z,996.23
2022-09-29T05:46:10.141Z,996.24
2022-09-29T05:47:09.890Z,996.24
2022-09-29T05:48:09.879Z,996.28
2022-09-29T05:49:09.871Z,996.28
2022-09-29T05:50:09.869Z,996.26
2022-09-29T05:51:09.867Z,996.29
2022-09-29T05:52:09.858Z,996.28
2022-09-29T05:53:09.855Z,996.31
2022-09-29T05:54:09.848Z,996.28
2022-09-29T05:55:09.861Z,996.31
2022-09-29T05:56:09.842Z,996.29
2022-09-29T05:57:09.835Z,996.30
2022-09-29T05:58:09.834Z,996.31
2022-09-29T05:59:09.825Z,996.30
2022-09-29T06:00:09.821Z,996.30
2022-09-29T06:01:09.865Z,996.30
2022-09-29T06:02:09.860Z,996.33
2022-09-29T06:03:09.805Z,996.35
2022-09-29T06:04:09.801Z,996.31
2022-09-29T06:05:09.798Z,996.31
2022-09-29T06:06:09.795Z,996.34
2022-09-29T06:07:09.785Z,996.36
2022-09-29T06:08:09.780Z,996.37
2022-09-29T06:09:09.778Z,996.40
2022-09-29T06:10:09.770Z,996.38
2022-09-29T06:11:09.789Z,996.37
2022-09-29T06:12:09.760Z,996.39
2022-09-29T06:13:09.757Z,996.35
2022-09-29T06:14:09.758Z,996.37
2022-09-29T06:15:09.752Z,996.36
2022-09-29T06:16:09.767Z,996.36
2022-09-29T06:17:09.988Z,996.35
2022-09-29T06:18:09.737Z,996.33
2022-09-29T06:19:09.739Z,996.32
2022-09-29T06:20:09.724Z,996.33
2022-09-29T06:21:09.720Z,996.33
2022-09-29T06:22:09.721Z,996.33
2022-09-29T06:23:09.709Z,996.37
2022-09-29T06:24:09.708Z,996.35
2022-09-29T06:25:09.715Z,996.38
2022-09-29T06:26:09.694Z,996.39
2022-09-29T06:27:09.707Z,996.38
2022-09-29T06:28:09.687Z,996.41
2022-09-29T06:29:09.683Z,996.43
2022-09-29T06:30:09.677Z,996.46
2022-09-29T06:31:09.668Z,996.50
2022-09-29T06:32:09.698Z,996.50
2022-09-29T06:33:09.663Z,996.49
2022-09-29T06:34:09.659Z,996.51
2022-09-29T06:35:09.653Z,996.54
2022-09-29T06:36:09.648Z,996.54
2022-09-29T06:37:09.642Z,996.56
2022-09-29T06:38:09.639Z,996.53
2022-09-29T06:39:09.633Z,996.49
2022-09-29T06:40:11.200Z,996.54
2022-09-29T06:41:09.627Z,996.56
2022-09-29T06:42:09.623Z,996.56
2022-09-29T06:43:09.631Z,996.54
2022-09-29T06:44:09.610Z,996.55
2022-09-29T06:45:09.604Z,996.56
2022-09-29T06:46:09.670Z,996.58
2022-09-29T06:47:09.598Z,996.59
2022-09-29T06:48:09.598Z,996.62
2022-09-29T06:49:09.589Z,996.61
2022-09-29T06:50:09.581Z,996.62
2022-09-29T06:51:10.605Z,996.61
2022-09-29T06:52:19.833Z,996.64
2022-09-29T06:53:09.567Z,996.66
2022-09-29T06:54:12.167Z,996.62
2022-09-29T06:55:09.557Z,996.70
2022-09-29T06:56:09.555Z,996.63
2022-09-29T06:57:09.548Z,996.62
2022-09-29T06:58:09.544Z,996.64
2022-09-29T06:59:09.576Z,996.67
2022-09-29T07:00:09.536Z,996.64
2022-09-29T07:01:09.572Z,996.66
2022-09-29T07:02:09.580Z,996.65
2022-09-29T07:03:09.521Z,996.66
2022-09-29T07:04:09.520Z,996.62
2022-09-29T07:05:09.510Z,996.67
2022-09-29T07:06:19.196Z,996.64
2022-09-29T07:07:09.506Z,996.68
2022-09-29T07:08:09.498Z,996.66
2022-09-29T07:09:09.495Z,996.66
2022-09-29T07:10:09.497Z,996.66
2022-09-29T07:11:09.484Z,996.67
2022-09-29T07:12:09.511Z,996.64
2022-09-29T07:13:09.487Z,996.60
2022-09-29T07:14:09.474Z,996.66
2022-09-29T07:15:09.485Z,996.66
2022-09-29T07:16:09.567Z,996.64
2022-09-29T07:17:09.461Z,996.65
2022-09-29T07:18:09.489Z,996.65
2022-09-29T07:19:09.450Z,996.70
2022-09-29T07:20:09.450Z,996.71
2022-09-29T07:21:09.444Z,996.73
2022-09-29T07:22:09.438Z,996.73
2022-09-29T07:23:09.433Z,996.76
2022-09-29T07:24:09.437Z,996.76
2022-09-29T07:25:09.426Z,996.82
2022-09-29T07:26:09.424Z,996.83
2022-09-29T07:27:09.419Z,996.83
2022-09-29T07:28:09.421Z,996.85
2022-09-29T07:29:14.901Z,996.90
2022-09-29T07:30:09.406Z,997.00
2022-09-29T07:31:14.793Z,997.02
2022-09-29T07:32:22.339Z,997.04
2022-09-29T07:33:09.452Z,997.04
2022-09-29T07:34:09.396Z,997.02
2022-09-29T07:35:09.388Z,997.07
2022-09-29T07:36:09.399Z,997.05
2022-09-29T07:37:09.383Z,997.07
2022-09-29T07:38:09.382Z,997.03
2022-09-29T07:39:09.376Z,997.03
2022-09-29T07:40:09.572Z,996.95
2022-09-29T07:41:09.368Z,996.94
2022-09-29T07:42:09.613Z,997.00
2022-09-29T07:43:09.363Z,997.00
2022-09-29T07:44:09.361Z,997.01
2022-09-29T07:45:09.372Z,997.02
2022-09-29T07:46:09.433Z,997.08
2022-09-29T07:47:09.375Z,997.06
2022-09-29T07:48:09.353Z,997.08
2022-09-29T07:49:09.348Z,997.10
2022-09-29T07:50:09.346Z,997.07
2022-09-29T07:51:09.340Z,997.05
2022-09-29T07:52:09.335Z,997.05
2022-09-29T07:53:09.338Z,997.08
2022-09-29T07:54:09.338Z,997.16
2022-09-29T07:55:09.328Z,997.13
2022-09-29T07:56:09.330Z,997.11
2022-09-29T07:57:09.331Z,997.11
2022-09-29T07:58:09.360Z,997.08
2022-09-29T07:59:09.319Z,997.14
2022-09-29T08:00:09.318Z,997.09
2022-09-29T08:01:09.356Z,997.12
2022-09-29T08:02:09.354Z,997.11
2022-09-29T08:03:09.325Z,997.12
2022-09-29T08:04:09.312Z,997.14
2022-09-29T08:05:09.304Z,997.11
2022-09-29T08:06:09.302Z,997.11
2022-09-29T08:07:09.301Z,997.15
2022-09-29T08:08:09.296Z,997.13
2022-09-29T08:09:09.297Z,997.17
2022-09-29T08:10:16.796Z,997.19
2022-09-29T08:11:10.465Z,997.15
2022-09-29T08:12:09.286Z,997.18
2022-09-29T08:13:09.281Z,997.18
2022-09-29T08:14:09.280Z,997.15
2022-09-29T08:15:09.281Z,997.16
2022-09-29T08:16:09.315Z,997.20
2022-09-29T08:17:09.270Z,997.19
2022-09-29T08:18:09.267Z,997.18
2022-09-29T08:19:09.348Z,997.24
2022-09-29T08:20:09.263Z,997.22
2022-09-29T08:21:09.260Z,997.22
2022-09-29T08:22:09.255Z,997.21
2022-09-29T08:23:09.253Z,997.22
2022-09-29T08:24:09.251Z,997.21
2022-09-29T08:25:09.246Z,997.22
2022-09-29T08:26:09.243Z,997.25
2022-09-29T08:27:18.128Z,997.25
2022-09-29T08:28:09.313Z,997.22
2022-09-29T08:29:09.392Z,997.24
2022-09-29T08:30:09.233Z,997.29
2022-09-29T08:31:09.230Z,997.27
2022-09-29T08:32:09.299Z,997.30
2022-09-29T08:33:09.222Z,997.26
2022-09-29T08:34:09.220Z,997.28
2022-09-29T08:35:09.239Z,997.27
2022-09-29T08:36:09.214Z,997.29
2022-09-29T08:37:09.211Z,997.31
2022-09-29T08:38:09.213Z,997.31
2022-09-29T08:39:09.205Z,997.35
2022-09-29T08:40:09.461Z,997.36
2022-09-29T08:41:09.200Z,997.38
2022-09-29T08:42:09.197Z,997.38
2022-09-29T08:43:09.194Z,997.41
2022-09-29T08:44:18.392Z,997.33
2022-09-29T08:45:16.012Z,997.36
2022-09-29T08:46:09.218Z,997.40
2022-09-29T08:47:11.032Z,997.45
2022-09-29T08:48:20.424Z,997.42
2022-09-29T08:49:09.175Z,997.43
2022-09-29T08:50:09.171Z,997.44
2022-09-29T08:51:09.185Z,997.46
2022-09-29T08:52:16.513Z,997.49
2022-09-29T08:53:22.145Z,997.48
2022-09-29T08:54:09.164Z,997.48
2022-09-29T08:55:18.987Z,997.47
2022-09-29T08:56:09.154Z,997.48
2022-09-29T08:57:09.148Z,997.50
2022-09-29T08:58:09.148Z,997.48
2022-09-29T08:59:09.146Z,997.48
2022-09-29T09:00:09.150Z,997.45
2022-09-29T09:01:09.208Z,997.50
2022-09-29T09:02:09.180Z,997.46
2022-09-29T09:03:09.134Z,997.47
2022-09-29T09:04:09.128Z,997.49
2022-09-29T09:05:09.124Z,997.49
2022-09-29T09:06:09.121Z,997.50
2022-09-29T09:07:09.136Z,997.47
2022-09-29T09:08:09.155Z,997.47
2022-09-29T09:09:09.111Z,997.47
2022-09-29T09:10:09.117Z,997.47
2022-09-29T09:11:09.110Z,997.47
2022-09-29T09:12:09.105Z,997.49
2022-09-29T09:13:09.099Z,997.48
2022-09-29T09:14:09.100Z,997.51
2022-09-29T09:15:09.092Z,997.51
2022-09-29T09:16:09.137Z,997.52
2022-09-29T09:17:09.094Z,997.50
2022-09-29T09:18:09.086Z,997.52
2022-09-29T09:19:09.083Z,997.52
2022-09-29T09:20:09.083Z,997.54
2022-09-29T09:21:09.075Z,997.53
2022-09-29T09:22:09.074Z,997.60
2022-09-29T09:23:09.088Z,997.52
2022-09-29T09:24:09.069Z,997.53
2022-09-29T09:25:09.064Z,997.53
2022-09-29T09:26:09.062Z,997.58
2022-09-29T09:27:09.057Z,997.53
2022-09-29T09:28:09.061Z,997.53
2022-09-29T09:29:09.050Z,997.56
2022-09-29T09:30:09.050Z,997.53
2022-09-29T09:31:09.140Z,997.54
2022-09-29T09:32:09.044Z,997.56
2022-09-29T09:33:09.049Z,997.54
2022-09-29T09:34:09.039Z,997.53
2022-09-29T09:35:21.017Z,997.54
2022-09-29T09:36:09.032Z,997.59
2022-09-29T09:37:09.031Z,997.56
2022-09-29T09:38:09.023Z,997.54
2022-09-29T09:39:09.044Z,997.58
2022-09-29T09:40:09.018Z,997.57
2022-09-29T09:41:09.019Z,997.56
2022-09-29T09:42:09.012Z,997.55
2022-09-29T09:43:09.006Z,997.57
2022-09-29T09:44:09.008Z,997.59
2022-09-29T09:45:09.002Z,997.59
2022-09-29T09:46:09.052Z,997.59
2022-09-29T09:47:08.996Z,997.60
2022-09-29T09:48:08.992Z,997.60
2022-09-29T09:49:08.990Z,997.60
2022-09-29T09:50:08.993Z,997.62
2022-09-29T09:51:08.992Z,997.61
2022-09-29T09:52:09.023Z,997.62
2022-09-29T09:53:11.705Z,997.65
2022-09-29T09:54:08.974Z,997.64
2022-09-29T09:55:08.991Z,997.64
2022-09-29T09:56:08.968Z,997.64
2022-09-29T09:57:08.965Z,997.64
2022-09-29T09:58:09.119Z,997.63
2022-09-29T09:59:08.965Z,997.59
2022-09-29T10:00:08.966Z,997.63
2022-09-29T10:01:09.003Z,997.58
2022-09-29T10:02:09.022Z,997.62
2022-09-29T10:03:08.960Z,997.62
2022-09-29T10:04:08.946Z,997.61
2022-09-29T10:05:09.666Z,997.60
2022-09-29T10:06:08.939Z,997.60
2022-09-29T10:07:08.935Z,997.60
2022-09-29T10:08:08.932Z,997.61
2022-09-29T10:09:09.023Z,997.61
2022-09-29T10:10:08.926Z,997.61
2022-09-29T10:11:08.944Z,997.63
2022-09-29T10:12:08.918Z,997.64
2022-09-29T10:13:08.915Z,997.67
2022-09-29T10:14:08.912Z,997.68
2022-09-29T10:15:08.909Z,997.65
2022-09-29T10:16:08.967Z,997.64
2022-09-29T10:17:08.908Z,997.64
2022-09-29T10:18:08.903Z,997.66
2022-09-29T10:19:08.900Z,997.64
2022-09-29T10:20:08.896Z,997.67
2022-09-29T10:21:08.891Z,997.64
2022-09-29T10:22:08.910Z,997.67
2022-09-29T10:23:08.888Z,997.65
2022-09-29T10:24:08.883Z,997.66
2022-09-29T10:25:08.887Z,997.68
2022-09-29T10:26:08.875Z,997.66
2022-09-29T10:27:08.894Z,997.65
2022-09-29T10:28:08.870Z,997.64
2022-09-29T10:29:08.867Z,997.65
2022-09-29T10:30:08.865Z,997.65
2022-09-29T10:31:08.902Z,997.67
2022-09-29T10:32:08.858Z,997.68
2022-09-29T10:33:11.099Z,997.70
2022-09-29T10:34:08.852Z,997.72
2022-09-29T10:35:08.851Z,997.70
2022-09-29T10:36:08.849Z,997.73
2022-09-29T10:37:08.844Z,997.74
2022-09-29T10:38:08.842Z,997.72
2022-09-29T10:39:08.841Z,997.75
2022-09-29T10:40:08.831Z,997.71
2022-09-29T10:41:08.841Z,997.77
2022-09-29T10:42:08.834Z,997.75
2022-09-29T10:43:08.848Z,997.75
2022-09-29T10:44:08.823Z,997.72
2022-09-29T10:45:08.824Z,997.71
2022-09-29T10:46:08.874Z,997.75
2022-09-29T10:47:08.814Z,997.78
2022-09-29T10:48:08.811Z,997.77
2022-09-29T10:49:08.910Z,997.78
2022-09-29T10:50:08.912Z,997.81
2022-09-29T10:51:08.812Z,997.82
2022-09-29T10:52:08.799Z,997.78
2022-09-29T10:53:10.167Z,997.77
2022-09-29T10:54:08.795Z,997.77
2022-09-29T10:55:08.788Z,997.83
2022-09-29T10:56:08.786Z,997.79
2022-09-29T10:57:08.785Z,997.79
2022-09-29T10:58:08.783Z,997.78
2022-09-29T10:59:08.792Z,997.77
2022-09-29T11:00:08.823Z,997.79
2022-09-29T11:01:08.870Z,997.77
2022-09-29T11:02:08.788Z,997.79
2022-09-29T11:03:08.769Z,997.80
2022-09-29T11:04:08.760Z,997.80
2022-09-29T11:05:08.757Z,997.81
2022-09-29T11:06:08.754Z,997.83
2022-09-29T11:07:08.749Z,997.85
2022-09-29T11:08:08.747Z,997.83
2022-09-29T11:09:08.784Z,997.82
2022-09-29T11:10:08.745Z,997.83
2022-09-29T11:11:08.740Z,997.84
2022-09-29T11:12:09.637Z,997.87
2022-09-29T11:13:08.732Z,997.85
2022-09-29T11:14:08.735Z,997.87
2022-09-29T11:15:08.754Z,997.84
2022-09-29T11:16:08.732Z,997.83
2022-09-29T11:17:08.731Z,997.87
2022-09-29T11:18:08.723Z,997.86
2022-09-29T11:19:08.713Z,997.86
2022-09-29T11:20:08.715Z,997.83
2022-09-29T11:21:08.711Z,997.86
2022-09-29T11:22:08.707Z,997.88
2022-09-29T11:23:08.705Z,997.84
2022-09-29T11:24:08.698Z,997.86
2022-09-29T11:25:08.699Z,997.91
2022-09-29T11:26:08.694Z,997.89
2022-09-29T11:27:08.693Z,997.92
2022-09-29T11:28:08.690Z,997.87
2022-09-29T11:29:08.686Z,997.90
2022-09-29T11:30:08.682Z,997.92
2022-09-29T11:31:08.699Z,997.88
2022-09-29T11:32:11.426Z,997.93
2022-09-29T11:33:08.680Z,997.89
2022-09-29T11:34:08.671Z,997.90
2022-09-29T11:35:08.674Z,997.93
2022-09-29T11:36:08.665Z,997.94
2022-09-29T11:37:08.662Z,997.94
2022-09-29T11:38:08.658Z,997.93
2022-09-29T11:39:08.656Z,997.99
2022-09-29T11:40:08.653Z,997.93
2022-09-29T11:41:08.653Z,998.00
2022-09-29T11:42:08.647Z,997.99
2022-09-29T11:43:08.651Z,998.02
2022-09-29T11:44:08.642Z,997.98
2022-09-29T11:45:08.945Z,998.00
2022-09-29T11:46:08.690Z,997.97
2022-09-29T11:47:08.648Z,998.01
2022-09-29T11:48:08.627Z,997.97
2022-09-29T11:49:08.628Z,998.00
2022-09-29T11:50:08.633Z,998.04
2022-09-29T11:51:08.623Z,998.04
2022-09-29T11:52:08.617Z,998.04
2022-09-29T11:53:08.612Z,998.02
2022-09-29T11:54:08.611Z,998.05
2022-09-29T11:55:08.609Z,998.02
2022-09-29T11:56:08.603Z,998.02
2022-09-29T11:57:08.609Z,997.99
2022-09-29T11:58:08.599Z,998.02
2022-09-29T11:59:08.597Z,997.99
2022-09-29T12:00:08.606Z,998.00
2022-09-29T12:01:08.589Z,998.01
2022-09-29T12:02:08.751Z,998.00
2022-09-29T12:03:08.701Z,997.97
2022-09-29T12:04:10.076Z,997.99
2022-09-29T12:05:08.583Z,997.99
2022-09-29T12:06:08.578Z,997.98
2022-09-29T12:07:08.584Z,998.00
2022-09-29T12:08:08.568Z,997.98
2022-09-29T12:09:08.604Z,997.99
2022-09-29T12:10:08.566Z,997.98
2022-09-29T12:11:37.438Z,997.99
2022-09-29T12:12:23.142Z,997.99
2022-09-29T12:13:08.555Z,998.00
2022-09-29T12:14:08.554Z,997.99
2022-09-29T12:15:08.550Z,997.96
2022-09-29T12:16:08.552Z,997.97
2022-09-29T12:17:08.572Z,997.96
2022-09-29T12:18:08.543Z,997.96
2022-09-29T12:19:08.555Z,997.93
2022-09-29T12:20:08.533Z,997.96
2022-09-29T12:21:08.596Z,997.93
2022-09-29T12:22:08.527Z,997.92
2022-09-29T12:23:08.528Z,997.90
2022-09-29T12:24:08.520Z,997.95
2022-09-29T12:25:08.532Z,997.97
2022-09-29T12:26:08.519Z,997.96
2022-09-29T12:27:08.522Z,997.98
2022-09-29T12:28:08.510Z,997.98